Time;durP1;ratioP1;P1;durP2;ratioP2;P2;SDS_P1;SDS_P2;PMS_P1;PMS_P2;Temp;Humidity;BMP_temperature;BMP_pressure;BME280_temperature;BME280_humidity;BME280_pressure;Samples;Min_cycle;Max_cycle;Signal;HPM_P1;HPM_P2
2023/10/12 04:58:32;;;;;;;;;;;;;;;6.08;83.67;100893.95;110035;1266;23285;-42
2023/10/12 05:01:19;;;;;;;;;;;;;;;6.15;83.25;100895.52;110039;1269;22565;-48
2023/10/12 05:04:07;;;;;;;;;;;;;;;6.22;83.43;100897.25;110111;1273;23121;-48
2023/10/12 05:06:36;;;;;;;;;;;;;;;6.29;83.29;100901.44;109977;1268;22479;-49
2023/10/12 05:09:11;;;;;;;;;;;;;;;6.37;83.16;100902.00;110067;1265;22531;-48
2023/10/12 05:11:38;;;;;;;;;;;;;;;6.46;83.09;100910.02;109943;1273;22549;-50
2023/10/12 05:14:14;;;;;;;;;;;;;;;6.54;82.93;100914.05;109988;1269;22721;-43
2023/10/12 05:16:45;;;;;;;;;;;;;;;6.63;82.82;100913.42;109930;1268;23264;-44
2023/10/12 05:19:12;;;;;;;;;;;;;;;6.70;82.58;100902.86;109723;1272;23273;-49
2023/10/12 05:21:40;;;;;;;;;;;;;;;6.78;82.78;100907.21;109746;1273;22515;-44
2023/10/12 05:24:11;;;;;;;;;;;;;;;6.86;82.33;100904.30;109847;1262;22483;-50
2023/10/12 05:26:39;;;;;;;;;;;;;;;6.94;82.10;100904.66;109843;1278;23229;-43
2023/10/12 05:32:36;;;;;;;;;;;;;;;7.10;81.93;100903.47;109577;1273;23265;-41
2023/10/12 05:39:22;;;;;;;;;;;;;;;7.34;81.65;100907.17;109418;1272;22930;-42
2023/10/12 05:48:58;;;;;;;;;;;;;;;7.73;81.02;100915.65;109725;1275;23518;-49
2023/10/12 05:51:56;;;;;;;;;;;;;;;7.86;80.83;100921.31;109905;1270;22517;-49
2023/10/12 05:54:51;;;;;;;;;;;;;;;7.97;80.41;100920.86;109963;1269;22482;-42
2023/10/12 05:57:25;;;;;;;;;;;;;;;8.09;80.22;100915.71;109778;1273;23279;-41
2023/10/12 06:00:00;;;;;;;;;;;;;;;8.22;80.14;100915.11;109912;1275;23443;-49
2023/10/12 06:02:39;;;;;;;;;;;;;;;8.36;79.88;100908.60;109878;1269;23104;-50
2023/10/12 06:05:08;;;;;;;;;;;;;;;8.46;79.72;100912.46;109837;1272;22497;-49
2023/10/12 06:07:37;;;;;;;;;;;;;;;8.59;79.51;100911.29;109987;1270;24528;-48
2023/10/12 06:10:09;;;;;;;;;;;;;;;8.72;79.16;100913.79;110059;1270;22453;-41
2023/10/12 06:12:37;;;;;;;;;;;;;;;8.83;78.81;100908.75;109947;1259;24178;-43
2023/10/12 06:15:09;;;;;;;;;;;;;;;8.94;78.64;100906.17;109828;1270;22531;-43
2023/10/12 06:17:55;;;;;;;;;;;;;;;9.08;78.42;100901.15;109610;1271;23267;-42
2023/10/12 06:20:40;;;;;;;;;;;;;;;9.25;78.30;100900.36;109596;1271;24448;-43
2023/10/12 06:23:20;;;;;;;;;;;;;;;9.38;77.65;100900.40;109811;1270;22931;-52
2023/10/12 06:25:55;;;;;;;;;;;;;;;9.51;77.47;100899.19;109809;1271;23233;-42
2023/10/12 06:28:38;;;;;;;;;;;;;;;9.66;77.67;100893.81;109449;1270;22596;-47
2023/10/12 06:31:31;;;;;;;;;;;;;;;9.83;77.60;100885.33;109675;1272;22622;-49
2023/10/12 06:34:19;;;;;;;;;;;;;;;10.04;77.08;100889.59;109679;1275;23289;-42
2023/10/12 06:36:57;;;;;;;;;;;;;;;10.25;78.37;100882.00;109849;1272;22466;-49
2023/10/12 06:42:28;;;;;;;;;;;;;;;10.68;77.75;100881.55;109663;1277;22485;-48
2023/10/12 06:44:55;;;;;;;;;;;;;;;10.86;77.60;100878.56;109585;1269;22548;-41
2023/10/12 06:47:32;;;;;;;;;;;;;;;11.01;77.12;100883.05;109811;1270;23320;-48
2023/10/12 06:50:00;;;;;;;;;;;;;;;11.12;76.60;100885.40;109971;1272;22493;-43
2023/10/12 06:52:27;;;;;;;;;;;;;;;11.19;76.31;100884.04;109779;1262;22498;-43
2023/10/12 06:54:59;;;;;;;;;;;;;;;11.30;75.77;100883.25;109890;1270;23659;-43
2023/10/12 07:00:59;;;;;;;;;;;;;;;11.46;75.39;100881.42;109912;1270;23217;-44
2023/10/12 07:02:43;;;;;;;;;;;;;;;11.60;75.32;100880.61;109816;1278;22483;-48
2023/10/12 07:05:19;;;;;;;;;;;;;;;11.70;74.85;100881.02;109934;1259;22538;-42
2023/10/12 07:07:52;;;;;;;;;;;;;;;11.83;74.24;100872.36;109313;1260;23382;-43
2023/10/12 07:10:28;;;;;;;;;;;;;;;11.95;74.03;100864.38;109796;1260;22992;-48
2023/10/12 07:13:00;;;;;;;;;;;;;;;12.12;73.79;100856.73;109800;1266;25408;-43
2023/10/12 07:15:32;;;;;;;;;;;;;;;12.27;73.45;100852.91;109490;1272;22651;-47
2023/10/12 07:18:13;;;;;;;;;;;;;;;12.41;72.98;100852.41;109661;1273;22506;-48
2023/10/12 07:20:42;;;;;;;;;;;;;;;12.53;72.79;100849.27;109662;1273;22501;-48
2023/10/12 07:23:15;;;;;;;;;;;;;;;12.64;72.91;100843.16;109895;1270;22571;-47
2023/10/12 07:25:48;;;;;;;;;;;;;;;12.81;73.58;100842.28;109287;1272;333172;-48
2023/10/12 07:28:26;;;;;;;;;;;;;;;13.00;73.71;100838.77;109341;1273;22530;-44
2023/10/12 07:31:41;;;;;;;;;;;;;;;13.14;73.28;100837.70;109970;1269;22419;-44
2023/10/12 07:39:42;;;;;;;;;;;;;;;13.25;72.78;100825.61;110040;1269;22448;-43
2023/10/12 07:42:01;;;;;;;;;;;;;;;13.34;72.73;100818.58;109951;1270;22595;-48
2023/10/12 07:44:29;;;;;;;;;;;;;;;13.47;72.59;100818.19;109545;1270;22524;-48
2023/10/12 07:47:03;;;;;;;;;;;;;;;13.62;72.60;100816.20;109905;1268;22568;-42
2023/10/12 07:49:37;;;;;;;;;;;;;;;13.79;72.71;100815.42;110022;1269;22477;-42
2023/10/12 07:57:15;;;;;;;;;;;;;;;14.26;71.51;100804.62;109797;1275;23742;-43
2023/10/12 07:59:54;;;;;;;;;;;;;;;14.42;70.55;100802.75;110042;1270;24005;-43
2023/10/12 08:02:59;;;;;;;;;;;;;;;14.56;70.08;100798.11;109671;1269;22674;-42
2023/10/12 08:05:41;;;;;;;;;;;;;;;14.74;69.42;100796.89;109893;1269;22508;-43
2023/10/12 08:13:06;;;;;;;;;;;;;;;15.10;66.53;100803.56;109863;1270;23249;-48
2023/10/12 08:21:10;;;;;;;;;;;;;;;15.41;65.06;100790.91;109557;1269;22549;-44
2023/10/12 08:23:38;;;;;;;;;;;;;;;15.49;64.77;100789.59;109540;1268;23034;-47
2023/10/12 08:26:21;;;;;;;;;;;;;;;15.54;64.90;100783.90;109508;1274;23281;-47
2023/10/12 08:28:55;;;;;;;;;;;;;;;15.56;64.29;100779.13;109625;1273;22528;-42
2023/10/12 08:31:27;;;;;;;;;;;;;;;15.57;64.06;100775.59;109657;1276;22483;-43
2023/10/12 08:34:03;;;;;;;;;;;;;;;15.58;63.99;100769.42;109635;1269;23445;-42
2023/10/12 08:36:45;;;;;;;;;;;;;;;15.69;63.50;100772.48;109461;1274;23290;-43
2023/10/12 08:39:13;;;;;;;;;;;;;;;15.75;62.87;100761.49;109839;1273;22448;-42
2023/10/12 08:44:46;;;;;;;;;;;;;;;15.91;62.53;100752.13;109691;1273;22522;-43
2023/10/12 08:47:24;;;;;;;;;;;;;;;15.97;61.98;100753.61;109596;1270;23352;-42
2023/10/12 08:50:01;;;;;;;;;;;;;;;16.03;61.90;100741.92;109661;1273;22537;-43
2023/10/12 08:52:29;;;;;;;;;;;;;;;16.11;61.95;100735.99;109903;1272;22509;-48
2023/10/12 08:55:04;;;;;;;;;;;;;;;16.24;61.27;100732.62;110023;1273;22491;-48
2023/10/12 08:57:38;;;;;;;;;;;;;;;16.35;60.34;100737.00;109982;1270;22586;-43
2023/10/12 09:00:23;;;;;;;;;;;;;;;16.50;59.38;100739.55;110054;1276;23636;-44
2023/10/12 09:05:42;;;;;;;;;;;;;;;16.66;57.34;100728.20;109971;1266;22542;-44
2023/10/12 09:10:48;;;;;;;;;;;;;;;16.79;57.10;100724.11;109819;1262;22565;-49
2023/10/12 09:13:17;;;;;;;;;;;;;;;16.86;57.04;100720.63;110034;1260;22504;-48
2023/10/12 09:15:48;;;;;;;;;;;;;;;16.89;57.07;100715.11;109928;1277;22506;-48
2023/10/12 09:18:18;;;;;;;;;;;;;;;16.93;56.69;100715.38;109815;1277;22465;-47
2023/10/12 09:21:00;;;;;;;;;;;;;;;16.98;56.63;100707.88;109950;1276;22463;-48
2023/10/12 09:23:46;;;;;;;;;;;;;;;17.07;56.72;100708.41;109893;1260;23015;-48
2023/10/12 09:26:19;;;;;;;;;;;;;;;17.19;56.41;100692.82;109954;1277;22451;-44
2023/10/12 09:36:53;;;;;;;;;;;;;;;17.45;55.72;100685.40;109789;1262;23227;-49
2023/10/12 09:39:46;;;;;;;;;;;;;;;17.47;55.53;100678.29;109640;1276;22432;-48
2023/10/12 10:05:54;;;;;;;;;;;;;;;18.43;51.48;100622.31;109905;1275;22490;-43
2023/10/12 10:12:56;;;;;;;;;;;;;;;19.36;48.31;100616.25;109933;1270;23084;-48
2023/10/12 10:15:43;;;;;;;;;;;;;;;19.83;46.90;100605.59;109932;1269;22965;-48
2023/10/12 10:18:16;;;;;;;;;;;;;;;20.18;46.49;100605.29;110080;1278;22458;-49
2023/10/12 10:20:56;;;;;;;;;;;;;;;20.44;45.67;100600.65;109941;1273;22479;-49
2023/10/12 10:23:23;;;;;;;;;;;;;;;20.62;45.05;100597.02;109966;1277;22462;-44
2023/10/12 10:25:56;;;;;;;;;;;;;;;20.82;44.03;100591.83;110124;1266;22941;-49
2023/10/12 10:28:25;;;;;;;;;;;;;;;21.01;43.48;100580.84;109967;1269;22754;-44
2023/10/12 10:30:56;;;;;;;;;;;;;;;21.14;42.82;100578.92;110064;1276;22528;-44
2023/10/12 10:33:23;;;;;;;;;;;;;;;21.16;42.92;100580.23;110000;1272;22489;-43
2023/10/12 10:35:59;;;;;;;;;;;;;;;21.31;42.78;100575.08;109950;1269;22451;-44
2023/10/12 10:38:32;;;;;;;;;;;;;;;21.43;42.69;100560.77;110139;1271;22481;-43
2023/10/12 10:41:07;;;;;;;;;;;;;;;21.54;42.44;100556.77;110051;1262;22431;-48
2023/10/12 10:43:37;;;;;;;;;;;;;;;21.55;42.15;100544.63;110131;1276;22430;-44
2023/10/12 10:46:06;;;;;;;;;;;;;;;21.49;42.24;100545.39;109983;1266;23896;-43
2023/10/12 10:48:38;;;;;;;;;;;;;;;21.49;42.15;100530.15;110135;1263;22468;-43
2023/10/12 10:51:27;;;;;;;;;;;;;;;21.37;42.23;100529.25;110147;1269;22443;-49
2023/10/12 10:53:54;;;;;;;;;;;;;;;21.21;42.33;100519.02;110055;1275;22527;-43
2023/10/12 10:56:35;;;;;;;;;;;;;;;21.05;42.54;100520.77;110052;1276;22907;-47
2023/10/12 10:59:07;;;;;;;;;;;;;;;20.94;42.84;100518.17;109983;1277;23357;-48
2023/10/12 11:01:34;;;;;;;;;;;;;;;20.86;42.70;100512.83;109856;1275;22664;-47
2023/10/12 11:04:08;;;;;;;;;;;;;;;20.73;42.98;100520.05;109994;1273;22477;-44
2023/10/12 11:06:41;;;;;;;;;;;;;;;20.62;43.23;100516.92;109702;1271;22491;-47
2023/10/12 11:09:15;;;;;;;;;;;;;;;20.51;43.83;100505.30;109900;1277;22528;-48
2023/10/12 11:11:45;;;;;;;;;;;;;;;20.50;44.08;100516.33;109796;1275;22441;-47
2023/10/12 11:14:16;;;;;;;;;;;;;;;20.51;43.96;100504.92;109857;1271;23217;-46
2023/10/12 11:16:46;;;;;;;;;;;;;;;20.56;43.44;100506.33;109915;1277;23768;-42
2023/10/12 11:19:13;;;;;;;;;;;;;;;20.55;43.42;100507.29;110003;1273;23827;-42
2023/10/12 11:21:45;;;;;;;;;;;;;;;20.53;43.42;100502.56;109991;1267;22452;-42
2023/10/12 11:24:14;;;;;;;;;;;;;;;20.47;43.47;100506.13;109978;1273;22545;-47
2023/10/12 11:27:01;;;;;;;;;;;;;;;20.40;43.51;100507.63;109969;1271;22969;-48
2023/10/12 11:29:28;;;;;;;;;;;;;;;20.28;43.73;100512.84;109919;1272;22806;-47
2023/10/12 11:32:16;;;;;;;;;;;;;;;20.20;43.93;100505.69;109824;1269;23300;-47
2023/10/12 11:34:50;;;;;;;;;;;;;;;20.15;43.93;100497.20;109907;1278;22669;-47
2023/10/12 11:37:17;;;;;;;;;;;;;;;20.11;44.22;100490.59;109970;1270;22453;-48
2023/10/12 11:39:44;;;;;;;;;;;;;;;20.13;44.24;100502.92;109888;1273;22511;-48
2023/10/12 11:42:14;;;;;;;;;;;;;;;20.14;44.08;100498.28;109916;1270;22616;-48
2023/10/12 11:44:44;;;;;;;;;;;;;;;20.12;44.07;100486.67;110031;1270;22440;-47
2023/10/12 11:47:37;;;;;;;;;;;;;;;20.05;44.10;100482.88;110093;1270;22477;-47
2023/10/12 11:50:09;;;;;;;;;;;;;;;19.91;44.61;100477.69;110146;1270;23013;-47
2023/10/12 11:52:37;;;;;;;;;;;;;;;19.83;44.89;100476.21;110104;1267;23327;-47
2023/10/12 11:55:18;;;;;;;;;;;;;;;19.84;44.93;100480.98;110023;1273;22476;-46
2023/10/12 11:57:45;;;;;;;;;;;;;;;19.88;44.64;100464.16;110044;1273;22520;-47
2023/10/12 12:00:21;;;;;;;;;;;;;;;19.95;44.61;100458.42;110133;1273;22447;-46
2023/10/12 12:02:57;;;;;;;;;;;;;;;19.99;44.35;100460.23;110022;1276;22476;-42
2023/10/12 12:05:25;;;;;;;;;;;;;;;19.95;44.28;100452.96;109907;1277;22456;-41
2023/10/12 12:07:52;;;;;;;;;;;;;;;19.87;44.53;100437.66;109964;1272;23084;-43
2023/10/12 12:13:12;;;;;;;;;;;;;;;19.88;44.38;100429.12;109697;1277;23256;-42
2023/10/12 12:15:45;;;;;;;;;;;;;;;19.87;44.44;100431.63;110070;1268;23298;-42
2023/10/12 12:18:19;;;;;;;;;;;;;;;19.89;44.32;100430.52;110049;1278;22460;-42
2023/10/12 12:20:49;;;;;;;;;;;;;;;19.94;44.24;100430.54;110004;1270;22464;-42
2023/10/12 12:23:17;;;;;;;;;;;;;;;20.04;44.14;100431.20;110008;1270;22440;-42
2023/10/12 12:25:44;;;;;;;;;;;;;;;20.13;43.52;100427.68;109984;1273;23094;-42
2023/10/12 12:28:16;;;;;;;;;;;;;;;20.17;43.43;100421.14;110004;1277;22451;-42
2023/10/12 12:30:46;;;;;;;;;;;;;;;20.22;43.33;100423.80;110056;1267;22456;-40
2023/10/12 12:33:29;;;;;;;;;;;;;;;20.34;42.84;100410.79;110128;1276;22438;-42
2023/10/12 12:36:04;;;;;;;;;;;;;;;20.39;42.68;100421.40;110034;1270;22451;-43
2023/10/12 12:40:57;;;;;;;;;;;;;;;20.25;43.00;100400.51;110157;1277;22483;-41
2023/10/12 12:43:24;;;;;;;;;;;;;;;20.20;43.09;100396.27;110177;1274;23082;-41
2023/10/12 12:45:52;;;;;;;;;;;;;;;20.15;43.15;100394.84;110141;1267;22504;-41
2023/10/12 12:48:22;;;;;;;;;;;;;;;20.10;43.29;100397.00;110134;1258;22857;-42
2023/10/12 12:50:49;;;;;;;;;;;;;;;20.03;43.57;100386.10;110060;1267;23349;-42
2023/10/12 12:53:20;;;;;;;;;;;;;;;19.99;43.12;100388.20;110114;1278;22472;-41
2023/10/12 12:55:47;;;;;;;;;;;;;;;19.96;43.32;100382.33;110011;1267;22440;-43
2023/10/12 12:58:17;;;;;;;;;;;;;;;19.96;43.31;100377.88;110127;1267;23302;-42
2023/10/12 13:00:47;;;;;;;;;;;;;;;19.98;43.53;100372.13;110114;1263;22521;-41
2023/10/12 13:03:15;;;;;;;;;;;;;;;20.02;43.36;100375.16;110018;1267;22460;-47
2023/10/12 13:05:42;;;;;;;;;;;;;;;20.18;43.00;100373.13;110096;1277;22528;-42
2023/10/12 13:08:11;;;;;;;;;;;;;;;20.36;42.57;100373.49;110156;1267;22434;-43
2023/10/12 13:10:38;;;;;;;;;;;;;;;20.43;42.53;100365.96;110099;1274;22523;-42
2023/10/12 13:13:06;;;;;;;;;;;;;;;20.52;42.29;100362.97;110099;1277;23149;-46
2023/10/12 13:15:41;;;;;;;;;;;;;;;20.59;41.96;100356.52;110014;1269;22620;-42
2023/10/12 13:18:14;;;;;;;;;;;;;;;20.56;41.60;100356.26;110102;1267;22524;-42
2023/10/12 13:20:47;;;;;;;;;;;;;;;20.44;41.76;100355.48;110057;1267;22851;-43
2023/10/12 13:23:15;;;;;;;;;;;;;;;20.27;42.11;100353.50;110131;1270;22484;-41
2023/10/12 13:25:42;;;;;;;;;;;;;;;20.15;42.25;100348.47;110201;1277;22425;-41
2023/10/12 13:28:10;;;;;;;;;;;;;;;20.08;42.52;100349.42;110165;1267;23493;-47
2023/10/12 13:30:37;;;;;;;;;;;;;;;20.05;42.62;100349.02;110199;1267;22425;-47
2023/10/12 13:33:05;;;;;;;;;;;;;;;20.04;42.78;100342.17;110166;1266;23188;-41
2023/10/12 13:35:37;;;;;;;;;;;;;;;20.05;42.66;100342.82;110222;1277;22627;-42
2023/10/12 13:38:05;;;;;;;;;;;;;;;20.09;42.56;100347.11;110212;1277;22424;-47
2023/10/12 13:40:32;;;;;;;;;;;;;;;20.11;42.36;100341.17;110125;1278;23192;-47
2023/10/12 13:43:06;;;;;;;;;;;;;;;20.15;42.49;100338.38;110185;1267;22528;-47
2023/10/12 13:45:33;;;;;;;;;;;;;;;20.18;42.05;100347.83;110114;1267;22504;-47
2023/10/12 13:48:01;;;;;;;;;;;;;;;20.21;41.83;100347.54;110162;1277;22447;-43
2023/10/12 13:50:28;;;;;;;;;;;;;;;20.20;41.90;100347.02;110140;1269;23139;-47
2023/10/12 13:52:54;;;;;;;;;;;;;;;20.15;41.67;100337.84;110211;1257;22578;-43
2023/10/12 13:55:24;;;;;;;;;;;;;;;20.07;41.72;100335.84;110190;1267;22509;-47
2023/10/12 13:57:51;;;;;;;;;;;;;;;19.99;41.96;100329.27;110257;1263;22419;-42
2023/10/12 14:00:22;;;;;;;;;;;;;;;19.93;42.09;100333.38;110160;1277;23035;-42
2023/10/12 14:02:53;;;;;;;;;;;;;;;19.89;42.13;100329.99;110146;1270;22496;-43
2023/10/12 14:05:24;;;;;;;;;;;;;;;19.95;42.16;100325.52;110112;1266;22519;-48
2023/10/12 14:07:54;;;;;;;;;;;;;;;20.09;41.75;100323.39;110080;1272;22454;-43
2023/10/12 14:10:21;;;;;;;;;;;;;;;20.23;41.10;100321.93;110048;1278;22441;-48
2023/10/12 14:12:48;;;;;;;;;;;;;;;20.36;40.82;100321.60;110160;1264;22492;-42
2023/10/12 14:15:15;;;;;;;;;;;;;;;20.45;40.80;100319.31;110159;1267;22465;-43
2023/10/12 14:17:42;;;;;;;;;;;;;;;20.47;40.69;100321.38;110154;1278;23245;-43
2023/10/12 14:20:09;;;;;;;;;;;;;;;20.42;40.87;100315.35;110176;1278;22411;-44
